Lanark Village, Florida
Current Conditions -  °F | °C
As of 10:53 AM on Saturday 20 Dec 2014 (Local Time) from KAAF Reporting Station
Overcast Overcast  
Wind Chill: 60°   Ceiling: 9000
Heat Index: 60°   Visibility: 10mi
Dew Point: 50°   Wind: 9mph
Humidity: 69%   Direction: 40°NE
Pressure: 30.13"   Gusts: NA
Location:  29.88°N, 84.6°W
Report Text: KAAF 201553Z AUTO 04008KT 10SM FEW060 OVC090 16/10 A3013 RMK AO2 SLP202 T01560100 TSNO
Loading
Personal Weather Stations






























Interactive Weather Map New forecast layout! Learn more

10-Day Weather Forecast

Advertisements
Track Severe Weather on mobile